Menlo Park, CA (94025)

2:07 AM PST on December 10, 2016 (GMT -0800)
Allied Arts | | Change Station

Elev 70 ft 37.44 °N, 122.18 °W | Updated 11 seconds ago

Mostly Cloudy
Mostly Cloudy
60.1 °F
Feels Like 60.1 °F
N
0.0
Wind Variable Wind from SSW
Gusts 2.0 mph

Today
High -- | Low -- °F
--% Chance of Precip.
Yesterday
High -- | Low -- °F
Precip. -- in
Pressure 30.14 in
Visibility 2.5 miles
Clouds Few 600 ft
Scattered Clouds 1900 ft
Overcast 2300 ft
Dew Point 56 °F
Humidity 87%
Rainfall 0.02 in
Snow Depth Not available.
7:12 AM 4:50 PM
Waxing Gibbous, 82% visible
METAR KSQL 100955Z AUTO 19004KT 2 1/2SM -RA FEW006 SCT019 OVC023 15/15 A3014 RMK AO2 P0001
Pressure 30.14 in
Visibility 2.5 miles
Clouds Few 600 ft
Scattered Clouds 1900 ft
Overcast 2300 ft
Dew Point 56 °F
Humidity 87%
Rainfall 0.02 in
Snow Depth Not available.
7:12 AM 4:50 PM
Waxing Gibbous, 82% visible
METAR KSQL 100955Z AUTO 19004KT 2 1/2SM -RA FEW006 SCT019 OVC023 15/15 A3014 RMK AO2 P0001

10-Day Weather Forecast

Almanac

Astronomy

Dec. 10, 2016 Rise Set
Actual Time
Civil Twilight
Nautical Twilight
Astronomical Twilight
Moon
Length of Visible Light
Length of Day
Tomorrow will be .
, % of the Moon is Illuminated

Today's Extremes

State Highs State Lows

Community

WunderPhotos

Upload Photos

1,956,536 photos uploaded!

WunderBlog® & News

Nearby

Air Quality

  Air Quality AQ Index Pollutant
Not available.

Snow Depth

Station Depth Elevation

Earthquake Activity

City Distance Mag. Time & Date
Minimum magnitude displayed is 2.5.

Coastal Water Temperatures

Place Temperature

Stations

Nearby Weather Stations

Station Location Temp. Windchill Dew Point Humidity Wind Precip. Elev Updated Type
                   

Watches & Warnings

There are currently no watches in effect.